createdAt,value
2019-01-17T00:02:39.496Z,8.07
2019-01-17T00:05:27.002Z,7.80
2019-01-17T00:08:13.667Z,9.00
2019-01-17T00:10:56.717Z,8.07
2019-01-17T00:13:36.022Z,10.00
2019-01-17T00:16:29.441Z,8.30
2019-01-17T00:19:16.394Z,7.83
2019-01-17T00:22:03.409Z,7.90
2019-01-17T00:24:56.728Z,8.10
2019-01-17T00:27:43.480Z,8.33
2019-01-17T00:30:31.162Z,7.90
2019-01-17T00:33:25.278Z,7.77
2019-01-17T00:36:19.534Z,7.60
2019-01-17T00:39:06.637Z,7.67
2019-01-17T00:42:02.322Z,7.67
2019-01-17T00:44:56.426Z,7.20
2019-01-17T00:47:45.243Z,7.63
2019-01-17T00:50:28.039Z,8.30
2019-01-17T00:53:14.804Z,6.87
2019-01-17T00:56:03.150Z,7.00
2019-01-17T00:58:50.068Z,7.57
2019-01-17T01:01:38.322Z,6.93
2019-01-17T01:04:29.323Z,6.63
2019-01-17T01:07:19.093Z,7.03
2019-01-17T01:10:00.677Z,6.60
2019-01-17T01:12:47.164Z,6.67
2019-01-17T01:15:31.205Z,6.60
2019-01-17T01:18:28.293Z,6.27
2019-01-17T01:21:24.401Z,7.13
2019-01-17T01:24:15.606Z,6.47
2019-01-17T01:27:03.844Z,6.57
2019-01-17T01:29:52.314Z,6.60
2019-01-17T01:32:49.591Z,6.70
2019-01-17T01:35:37.708Z,6.00
2019-01-17T01:38:35.042Z,6.50
2019-01-17T01:41:30.351Z,6.37
2019-01-17T01:44:24.490Z,6.50
2019-01-17T01:47:08.572Z,6.50
2019-01-17T01:50:03.947Z,6.47
2019-01-17T01:52:43.220Z,6.53
2019-01-17T01:55:12.332Z,5.80
2019-01-17T01:57:41.493Z,6.37
2019-01-17T02:00:11.171Z,6.60
2019-01-17T02:02:40.321Z,6.60
2019-01-17T02:05:09.617Z,6.93
2019-01-17T02:07:38.767Z,6.87
2019-01-17T02:10:08.871Z,7.00
2019-01-17T02:12:38.021Z,6.30
2019-01-17T02:15:07.155Z,6.13
2019-01-17T02:17:36.294Z,6.70
2019-01-17T02:20:07.739Z,6.70
2019-01-17T02:22:36.889Z,6.97
2019-01-17T02:25:07.009Z,6.57
2019-01-17T02:27:36.454Z,6.57
2019-01-17T02:30:06.188Z,6.03
2019-01-17T02:32:35.335Z,6.63
2019-01-17T02:35:04.464Z,6.93
2019-01-17T02:37:33.615Z,6.17
2019-01-17T02:40:02.760Z,6.50
2019-01-17T02:42:32.559Z,5.83
2019-01-17T02:45:01.815Z,5.77
2019-01-17T02:47:30.954Z,6.23
2019-01-17T02:50:00.230Z,5.93
2019-01-17T02:52:29.340Z,6.23
2019-01-17T02:54:58.424Z,6.13
2019-01-17T02:57:27.679Z,6.00
2019-01-17T02:59:56.783Z,6.47
2019-01-17T03:02:25.960Z,6.20
2019-01-17T03:04:55.060Z,5.77
2019-01-17T03:07:24.207Z,5.50
2019-01-17T03:09:53.676Z,6.10
2019-01-17T03:12:22.795Z,5.37
2019-01-17T03:14:51.925Z,6.13
2019-01-17T03:17:21.092Z,5.80
2019-01-17T03:19:50.181Z,6.30
2019-01-17T03:22:19.448Z,6.60
2019-01-17T03:24:48.924Z,5.87
2019-01-17T03:27:18.078Z,6.23
2019-01-17T03:29:47.491Z,5.53
2019-01-17T03:32:16.744Z,5.77
2019-01-17T03:34:45.909Z,5.90
2019-01-17T03:37:15.037Z,5.20
2019-01-17T03:39:44.306Z,6.03
2019-01-17T03:42:13.434Z,5.83
2019-01-17T03:44:42.792Z,5.60
2019-01-17T03:47:11.908Z,6.03
2019-01-17T03:49:41.125Z,5.73
2019-01-17T03:52:10.233Z,6.17
2019-01-17T03:54:39.366Z,5.50
2019-01-17T03:57:08.464Z,5.33
2019-01-17T03:59:37.600Z,5.27
2019-01-17T04:02:07.074Z,5.40
2019-01-17T04:04:36.393Z,4.93
2019-01-17T04:07:05.712Z,5.37
2019-01-17T04:09:34.887Z,5.03
2019-01-17T04:12:03.982Z,5.23
2019-01-17T04:14:33.108Z,5.83
2019-01-17T04:17:02.132Z,5.37
2019-01-17T04:19:31.266Z,5.27
2019-01-17T04:22:00.743Z,5.47
2019-01-17T04:24:29.897Z,5.10
2019-01-17T04:26:59.017Z,5.20
2019-01-17T04:29:28.154Z,6.13
2019-01-17T04:31:57.287Z,5.40
2019-01-17T04:34:26.445Z,6.17
2019-01-17T04:36:55.527Z,5.07
2019-01-17T04:39:24.657Z,5.03
2019-01-17T04:41:54.087Z,5.10
2019-01-17T04:44:23.258Z,4.90
2019-01-17T04:46:52.360Z,6.10
2019-01-17T04:49:21.538Z,4.93
2019-01-17T04:51:51.010Z,4.93
2019-01-17T04:54:20.457Z,4.80
2019-01-17T04:56:49.540Z,4.73
2019-01-17T04:59:18.669Z,5.30
2019-01-17T05:01:47.742Z,5.00
2019-01-17T05:04:16.868Z,4.30
2019-01-17T05:06:45.966Z,4.83
2019-01-17T05:09:15.139Z,4.83
2019-01-17T05:11:44.329Z,4.63
2019-01-17T05:14:13.647Z,4.83
2019-01-17T05:16:42.735Z,4.40
2019-01-17T05:19:11.861Z,4.73
2019-01-17T05:21:41.011Z,4.90
2019-01-17T05:24:10.149Z,4.90
2019-01-17T05:26:39.271Z,4.70
2019-01-17T05:29:08.423Z,6.90
2019-01-17T05:31:37.681Z,4.90
2019-01-17T05:34:06.818Z,5.27
2019-01-17T05:36:35.919Z,5.50
2019-01-17T05:39:07.808Z,6.10
2019-01-17T05:41:36.908Z,5.07
2019-01-17T05:44:06.055Z,5.00
2019-01-17T05:46:35.164Z,4.67
2019-01-17T05:49:06.562Z,5.00
2019-01-17T05:51:39.268Z,4.87
2019-01-17T05:54:11.953Z,5.00
2019-01-17T05:56:42.386Z,5.00
2019-01-17T05:59:11.574Z,4.30
2019-01-17T06:01:40.695Z,4.73
2019-01-17T06:04:09.847Z,4.43
2019-01-17T06:06:39.103Z,4.37
2019-01-17T06:09:11.991Z,4.60
2019-01-17T06:11:41.031Z,4.80
2019-01-17T06:14:10.930Z,4.20
2019-01-17T06:16:40.109Z,4.50
2019-01-17T06:19:09.216Z,4.73
2019-01-17T06:21:38.376Z,5.27
2019-01-17T06:24:07.844Z,4.87
2019-01-17T06:26:37.020Z,4.70
2019-01-17T06:29:06.277Z,4.80
2019-01-17T06:31:35.399Z,4.70
2019-01-17T06:34:04.590Z,4.40
2019-01-17T06:36:33.717Z,4.80
2019-01-17T06:39:03.661Z,4.33
2019-01-17T06:41:33.092Z,4.60
2019-01-17T06:44:02.194Z,5.27
2019-01-17T06:46:31.349Z,4.67
2019-01-17T06:49:01.303Z,4.70
2019-01-17T06:51:36.411Z,5.20
2019-01-17T06:54:05.761Z,5.43
2019-01-17T06:56:34.925Z,5.30
2019-01-17T06:59:04.135Z,5.30
2019-01-17T07:01:33.283Z,5.20
2019-01-17T07:04:02.395Z,6.00
2019-01-17T07:06:31.558Z,5.67
2019-01-17T07:09:00.699Z,5.40
2019-01-17T07:11:29.828Z,5.60
2019-01-17T07:13:59.105Z,5.57
2019-01-17T07:16:28.266Z,5.43
2019-01-17T07:18:57.593Z,5.47
2019-01-17T07:21:26.709Z,5.67
2019-01-17T07:23:55.886Z,5.30
2019-01-17T07:26:25.033Z,7.30
2019-01-17T07:28:54.193Z,7.07
2019-01-17T07:31:23.387Z,5.23
2019-01-17T07:33:52.481Z,4.77
2019-01-17T07:36:21.618Z,5.40
2019-01-17T07:38:50.728Z,5.13
2019-01-17T07:41:19.844Z,5.60
2019-01-17T07:43:49.036Z,5.17
2019-01-17T07:46:18.200Z,5.83
2019-01-17T07:48:47.314Z,5.77
2019-01-17T07:51:16.440Z,5.13
2019-01-17T07:53:45.545Z,5.77
2019-01-17T07:56:14.682Z,5.37
2019-01-17T07:58:43.775Z,4.40
2019-01-17T08:01:15.058Z,4.30
2019-01-17T08:03:43.813Z,4.00
2019-01-17T08:06:12.961Z,4.10
2019-01-17T08:08:42.486Z,4.00
2019-01-17T08:11:11.917Z,4.30
2019-01-17T08:13:41.139Z,4.17
2019-01-17T08:16:10.391Z,3.53
2019-01-17T08:18:39.491Z,3.80
2019-01-17T08:21:08.608Z,3.93
2019-01-17T08:23:37.784Z,3.70
2019-01-17T08:26:06.881Z,4.00
2019-01-17T08:28:36.005Z,3.73
2019-01-17T08:31:05.089Z,3.87
2019-01-17T08:33:34.212Z,3.77
2019-01-17T08:36:07.314Z,4.13
2019-01-17T08:38:36.492Z,3.77
2019-01-17T08:41:05.758Z,4.40
2019-01-17T08:43:34.944Z,3.90
2019-01-17T08:46:04.176Z,3.93
2019-01-17T08:48:33.304Z,4.20
2019-01-17T08:51:02.510Z,3.47
2019-01-17T08:53:31.659Z,4.10
2019-01-17T08:56:01.430Z,3.60
2019-01-17T08:58:30.690Z,4.10
2019-01-17T09:00:59.852Z,3.40
2019-01-17T09:03:28.970Z,3.50
2019-01-17T09:05:59.170Z,3.73
2019-01-17T09:08:28.434Z,3.90
2019-01-17T09:10:57.948Z,4.67
2019-01-17T09:13:27.179Z,3.73
2019-01-17T09:15:56.604Z,3.77
2019-01-17T09:18:25.903Z,3.53
2019-01-17T09:20:55.053Z,3.93
2019-01-17T09:23:24.171Z,4.30
2019-01-17T09:25:53.309Z,3.90
2019-01-17T09:28:22.479Z,4.20
2019-01-17T09:30:51.571Z,3.47
2019-01-17T09:33:20.692Z,3.70
2019-01-17T09:35:49.947Z,3.70
2019-01-17T09:38:19.239Z,3.63
2019-01-17T09:40:48.411Z,3.23
2019-01-17T09:43:17.556Z,3.27
2019-01-17T09:45:47.065Z,3.10
2019-01-17T09:48:16.250Z,3.50
2019-01-17T09:50:45.395Z,3.40
2019-01-17T09:53:14.652Z,3.57
2019-01-17T09:55:43.945Z,7.80
2019-01-17T09:58:13.070Z,4.67
2019-01-17T10:00:42.591Z,4.20
2019-01-17T10:03:11.862Z,5.20
2019-01-17T10:05:40.988Z,16.60
2019-01-17T10:08:10.227Z,5.27
2019-01-17T10:10:39.464Z,4.40
2019-01-17T10:13:08.653Z,2.90
2019-01-17T10:16:02.062Z,4.23
2019-01-17T10:19:06.234Z,3.50
2019-01-17T10:22:30.707Z,3.60
2019-01-17T10:25:40.967Z,3.63
2019-01-17T10:28:25.060Z,3.67
2019-01-17T10:31:38.651Z,3.10
2019-01-17T10:34:55.010Z,3.20
2019-01-17T10:37:50.875Z,3.27
2019-01-17T10:41:13.364Z,3.07
2019-01-17T10:44:16.042Z,3.17
2019-01-17T10:46:57.644Z,2.97
2019-01-17T10:49:57.695Z,5.97
2019-01-17T10:53:29.259Z,2.80
2019-01-17T10:56:41.560Z,3.20
2019-01-17T10:59:36.253Z,2.80
2019-01-17T11:02:33.414Z,3.50
2019-01-17T11:05:50.869Z,3.20
2019-01-17T11:09:04.879Z,2.67
2019-01-17T11:12:15.018Z,3.07
2019-01-17T11:15:22.848Z,3.20
2019-01-17T11:18:14.460Z,2.80
2019-01-17T11:21:30.405Z,2.40
2019-01-17T11:24:25.822Z,2.50
2019-01-17T11:27:31.963Z,2.60
2019-01-17T11:30:32.513Z,2.80
2019-01-17T11:33:19.725Z,2.90
2019-01-17T11:36:28.738Z,2.73
2019-01-17T11:39:21.557Z,2.80
2019-01-17T11:42:38.127Z,2.90
2019-01-17T11:45:29.855Z,2.40
2019-01-17T11:48:48.883Z,2.47
2019-01-17T11:51:43.472Z,3.00
2019-01-17T11:55:06.948Z,2.17
2019-01-17T11:58:08.733Z,2.50
2019-01-17T12:01:13.573Z,2.40
2019-01-17T12:04:17.555Z,2.30
2019-01-17T12:06:46.647Z,2.30
2019-01-17T12:09:15.831Z,2.07
2019-01-17T12:11:44.928Z,2.03
2019-01-17T12:14:14.053Z,2.30
2019-01-17T12:16:43.261Z,2.17
2019-01-17T12:19:12.817Z,2.10
2019-01-17T12:21:41.949Z,2.10
2019-01-17T12:24:11.162Z,2.10
2019-01-17T12:26:40.657Z,1.70
2019-01-17T12:29:09.781Z,5.63
2019-01-17T12:31:38.909Z,3.87
2019-01-17T12:34:07.991Z,2.70
2019-01-17T12:36:37.124Z,2.30
2019-01-17T12:39:09.374Z,2.57
2019-01-17T12:41:38.504Z,2.17
2019-01-17T12:44:07.638Z,1.60
2019-01-17T12:46:36.775Z,1.70
2019-01-17T12:49:05.898Z,2.10
2019-01-17T12:51:35.031Z,2.03
2019-01-17T12:54:04.540Z,2.17
2019-01-17T12:56:33.965Z,1.80
2019-01-17T12:59:02.982Z,2.60
2019-01-17T13:01:32.116Z,4.47
2019-01-17T13:04:01.213Z,3.73
2019-01-17T13:06:30.400Z,3.90
2019-01-17T13:08:59.538Z,2.77
2019-01-17T13:11:28.994Z,3.20
2019-01-17T13:13:58.161Z,3.10
2019-01-17T13:16:27.297Z,2.37
2019-01-17T13:18:56.435Z,3.10
2019-01-17T13:21:25.570Z,2.00
2019-01-17T13:23:54.671Z,2.43
2019-01-17T13:26:24.114Z,1.70
2019-01-17T13:28:53.284Z,2.40
2019-01-17T13:31:22.399Z,3.00
2019-01-17T13:33:51.664Z,1.30
2019-01-17T13:36:20.736Z,1.50
2019-01-17T13:38:49.983Z,1.63
2019-01-17T13:41:19.225Z,1.50
2019-01-17T13:43:48.364Z,1.40
2019-01-17T13:46:17.578Z,1.37
2019-01-17T13:48:46.777Z,1.40
2019-01-17T13:51:15.989Z,1.47
2019-01-17T13:53:45.108Z,1.20
2019-01-17T13:56:14.250Z,1.37
2019-01-17T13:58:43.355Z,1.40
2019-01-17T14:01:12.479Z,1.30
2019-01-17T14:03:41.650Z,1.50
2019-01-17T14:06:10.797Z,1.30
2019-01-17T14:08:40.027Z,1.47
2019-01-17T14:11:09.193Z,1.50
2019-01-17T14:13:38.461Z,1.40
2019-01-17T14:16:08.325Z,1.33
2019-01-17T14:18:37.550Z,1.20
2019-01-17T14:21:06.642Z,1.20
2019-01-17T14:23:35.803Z,1.40
2019-01-17T14:26:04.921Z,1.23
2019-01-17T14:28:34.061Z,1.40
2019-01-17T14:31:03.186Z,1.50
2019-01-17T14:33:32.359Z,1.30
2019-01-17T14:36:01.443Z,1.27
2019-01-17T14:38:30.537Z,1.17
2019-01-17T14:40:59.783Z,1.30
2019-01-17T14:43:29.004Z,0.90
2019-01-17T14:45:58.157Z,0.97
2019-01-17T14:48:27.239Z,1.20
2019-01-17T14:50:56.596Z,1.10
2019-01-17T14:53:25.934Z,5.40
2019-01-17T14:55:54.984Z,0.90
2019-01-17T14:58:24.089Z,1.13
2019-01-17T15:00:53.287Z,1.73
2019-01-17T15:03:22.472Z,1.43
2019-01-17T15:05:51.617Z,2.10
2019-01-17T15:08:20.994Z,2.20
2019-01-17T15:10:52.800Z,1.80
2019-01-17T15:13:21.910Z,2.23
2019-01-17T15:15:51.023Z,1.50
2019-01-17T15:18:20.065Z,4.60
2019-01-17T15:20:49.158Z,3.70
2019-01-17T15:23:18.275Z,1.57
2019-01-17T15:25:47.412Z,2.60
2019-01-17T15:28:16.495Z,2.60
2019-01-17T15:30:45.552Z,4.63
2019-01-17T15:33:14.651Z,10.00
2019-01-17T15:35:44.248Z,7.87
2019-01-17T15:38:13.349Z,6.40
2019-01-17T15:40:42.393Z,3.20
2019-01-17T15:43:11.518Z,3.10
2019-01-17T15:45:40.659Z,1.90
2019-01-17T15:48:09.776Z,3.53
2019-01-17T15:50:39.014Z,4.83
2019-01-17T15:53:08.177Z,2.57
2019-01-17T15:55:37.475Z,6.13
2019-01-17T15:58:06.600Z,4.90
2019-01-17T16:00:35.693Z,17.50
2019-01-17T16:03:04.772Z,3.33
2019-01-17T16:05:34.105Z,2.27
2019-01-17T16:08:03.245Z,10.37
2019-01-17T16:10:32.306Z,3.77
2019-01-17T16:13:01.344Z,3.07
2019-01-17T16:15:32.159Z,2.63
2019-01-17T16:18:05.103Z,3.00
2019-01-17T16:20:38.118Z,5.80
2019-01-17T16:23:07.252Z,2.70
2019-01-17T16:25:42.453Z,2.70
2019-01-17T16:28:17.365Z,2.90
2019-01-17T16:30:46.547Z,3.10
2019-01-17T16:33:15.706Z,3.20
2019-01-17T16:35:44.865Z,3.10
2019-01-17T16:38:14.119Z,4.53
2019-01-17T16:40:43.216Z,3.67
2019-01-17T16:43:12.283Z,3.97
2019-01-17T16:45:41.441Z,6.03
2019-01-17T16:48:10.622Z,5.20
2019-01-17T16:50:39.829Z,5.00
2019-01-17T16:53:08.913Z,5.23
2019-01-17T16:55:38.361Z,5.10
2019-01-17T16:58:07.766Z,5.40
2019-01-17T17:00:42.194Z,5.97
2019-01-17T17:03:11.287Z,6.00
2019-01-17T17:05:40.776Z,6.60
2019-01-17T17:08:09.840Z,6.07
2019-01-17T17:10:40.313Z,6.33
2019-01-17T17:13:09.531Z,5.87
2019-01-17T17:15:38.633Z,6.20
2019-01-17T17:18:07.723Z,5.37
2019-01-17T17:20:36.885Z,5.90
2019-01-17T17:23:06.118Z,5.13
2019-01-17T17:25:35.222Z,5.33
2019-01-17T17:28:04.506Z,5.37
2019-01-17T17:30:33.689Z,6.23
2019-01-17T17:33:02.919Z,4.80
2019-01-17T17:35:31.926Z,5.50
2019-01-17T17:38:02.213Z,7.60
2019-01-17T17:40:31.728Z,4.60
2019-01-17T17:43:00.793Z,4.80
2019-01-17T17:45:30.634Z,4.57
2019-01-17T17:48:01.552Z,3.80
2019-01-17T17:50:30.665Z,14.13
2019-01-17T17:52:59.798Z,3.83
2019-01-17T17:55:28.986Z,5.70
2019-01-17T17:58:02.197Z,5.20
2019-01-17T18:00:37.080Z,4.70
2019-01-17T18:03:06.356Z,4.13
2019-01-17T18:05:38.382Z,3.70
2019-01-17T18:08:14.895Z,4.77
2019-01-17T18:10:44.134Z,4.40
2019-01-17T18:13:13.234Z,6.97
2019-01-17T18:15:42.633Z,4.00
2019-01-17T18:18:21.712Z,3.20
2019-01-17T18:20:52.886Z,2.77
2019-01-17T18:23:21.952Z,2.10
2019-01-17T18:25:51.490Z,1.57
2019-01-17T18:28:20.614Z,5.90
2019-01-17T18:30:51.368Z,10.63
2019-01-17T18:33:23.987Z,5.23
2019-01-17T18:35:53.576Z,3.00
2019-01-17T18:38:32.605Z,4.27
2019-01-17T18:41:01.798Z,5.27
2019-01-17T18:43:33.649Z,3.77
2019-01-17T18:46:06.156Z,4.80
2019-01-17T18:48:44.262Z,4.77
2019-01-17T18:51:31.471Z,5.87
2019-01-17T18:54:00.555Z,5.13
2019-01-17T18:56:31.665Z,4.33
2019-01-17T18:59:02.401Z,5.00
2019-01-17T19:01:31.627Z,4.67
2019-01-17T19:04:00.703Z,2.70
2019-01-17T19:06:32.668Z,16.03
2019-01-17T19:09:01.880Z,2.53
2019-01-17T19:11:31.241Z,3.30
2019-01-17T19:14:00.310Z,2.83
2019-01-17T19:16:34.800Z,4.23
2019-01-17T19:19:03.963Z,2.70
2019-01-17T19:21:33.526Z,4.30
2019-01-17T19:24:02.658Z,2.20
2019-01-17T19:26:32.936Z,2.33
2019-01-17T19:29:03.839Z,1.97
2019-01-17T19:31:33.071Z,2.03
2019-01-17T19:34:02.178Z,1.93
2019-01-17T19:36:32.690Z,2.00
2019-01-17T19:39:04.768Z,2.20
2019-01-17T19:41:36.891Z,1.70
2019-01-17T19:44:08.999Z,1.83
2019-01-17T19:46:38.190Z,1.60
2019-01-17T19:49:07.257Z,1.87
2019-01-17T19:51:39.659Z,2.30
2019-01-17T19:54:11.499Z,2.43
2019-01-17T19:56:41.184Z,2.93
2019-01-17T19:59:10.167Z,2.30
2019-01-17T20:01:44.096Z,1.90
2019-01-17T20:04:13.897Z,2.90
2019-01-17T20:06:43.549Z,2.50
2019-01-17T20:09:15.787Z,2.20
2019-01-17T20:11:45.503Z,2.50
2019-01-17T20:14:15.081Z,2.70
2019-01-17T20:16:44.391Z,2.83
2019-01-17T20:19:13.536Z,3.20
2019-01-17T20:21:42.710Z,2.77
2019-01-17T20:24:15.257Z,3.30
2019-01-17T20:26:44.347Z,2.90
2019-01-17T20:29:17.066Z,3.60
2019-01-17T20:31:51.177Z,3.53
2019-01-17T20:34:24.014Z,3.90
2019-01-17T20:36:53.224Z,6.33
2019-01-17T20:39:22.277Z,4.50
2019-01-17T20:41:51.448Z,5.27
2019-01-17T20:44:21.551Z,5.40
2019-01-17T20:46:50.691Z,5.70
2019-01-17T20:49:19.926Z,5.10
2019-01-17T20:51:49.070Z,6.10
2019-01-17T20:54:18.174Z,5.30
2019-01-17T20:56:47.311Z,5.73
2019-01-17T20:59:16.552Z,5.97
2019-01-17T21:02:03.669Z,5.73
2019-01-17T21:04:32.752Z,5.97
2019-01-17T21:07:05.667Z,5.73
2019-01-17T21:09:32.834Z,5.27
2019-01-17T21:12:11.275Z,5.10
2019-01-17T21:14:41.474Z,5.13
2019-01-17T21:17:10.628Z,5.20
2019-01-17T21:19:41.888Z,5.00
2019-01-17T21:22:15.436Z,4.33
2019-01-17T21:24:47.641Z,4.80
2019-01-17T21:27:16.906Z,4.60
2019-01-17T21:29:49.020Z,4.60
2019-01-17T21:32:18.102Z,4.37
2019-01-17T21:34:47.515Z,4.00
2019-01-17T21:37:16.637Z,3.80
2019-01-17T21:39:45.630Z,3.73
2019-01-17T21:42:15.598Z,3.40
2019-01-17T21:44:44.601Z,3.33
2019-01-17T21:47:13.736Z,3.40
2019-01-17T21:49:43.084Z,2.70
2019-01-17T21:52:12.164Z,2.90
2019-01-17T21:54:41.278Z,2.80
2019-01-17T21:57:10.468Z,3.23
2019-01-17T21:59:39.599Z,2.50
2019-01-17T22:02:08.713Z,2.60
2019-01-17T22:04:41.482Z,2.70
2019-01-17T22:07:10.654Z,2.67
2019-01-17T22:09:39.972Z,3.90
2019-01-17T22:12:09.073Z,2.93
2019-01-17T22:14:38.881Z,2.90
2019-01-17T22:17:08.041Z,3.10
2019-01-17T22:19:46.330Z,2.97
2019-01-17T22:22:15.374Z,3.20
2019-01-17T22:24:44.474Z,3.20
2019-01-17T22:27:13.947Z,3.13
2019-01-17T22:29:47.865Z,3.13
2019-01-17T22:32:17.303Z,3.00
2019-01-17T22:34:46.409Z,2.80
2019-01-17T22:37:15.604Z,3.23
2019-01-17T22:39:44.754Z,3.40
2019-01-17T22:42:14.024Z,3.30
2019-01-17T22:44:43.122Z,3.87
2019-01-17T22:47:12.360Z,3.47
2019-01-17T22:49:41.444Z,4.00
2019-01-17T22:52:10.645Z,4.40
2019-01-17T22:54:39.667Z,3.50
2019-01-17T22:57:08.783Z,4.30
2019-01-17T22:59:37.901Z,3.83
2019-01-17T23:02:07.025Z,3.83
2019-01-17T23:04:36.071Z,4.03
2019-01-17T23:07:05.628Z,3.50
2019-01-17T23:09:34.850Z,3.50
2019-01-17T23:12:04.236Z,4.10
2019-01-17T23:14:33.460Z,3.87
2019-01-17T23:17:02.534Z,3.50
2019-01-17T23:19:31.825Z,3.67
2019-01-17T23:22:00.876Z,3.67
2019-01-17T23:24:30.171Z,3.70
2019-01-17T23:26:59.111Z,3.50
2019-01-17T23:29:28.165Z,4.10
2019-01-17T23:32:03.315Z,3.57
2019-01-17T23:34:32.596Z,3.33
2019-01-17T23:37:01.616Z,3.63
2019-01-17T23:39:30.618Z,3.43
2019-01-17T23:42:01.778Z,3.73
2019-01-17T23:44:30.845Z,3.93
2019-01-17T23:46:59.938Z,3.20
2019-01-17T23:49:29.020Z,3.67
2019-01-17T23:54:40.278Z,3.33
2019-01-17T23:57:09.446Z,3.40
2019-01-17T23:59:38.568Z,3.00
